sensor_id;sensor_type;location;lat;lon;timestamp;temperature;humidity
298;DHT22;133;49.626;9.680;2023-05-10T00:02:24;15.10;98.70
298;DHT22;133;49.626;9.680;2023-05-10T00:04:50;15.10;98.70
298;DHT22;133;49.626;9.680;2023-05-10T00:07:15;15.10;98.70
298;DHT22;133;49.626;9.680;2023-05-10T00:09:43;15.00;98.70
298;DHT22;133;49.626;9.680;2023-05-10T00:12:08;15.00;98.70
298;DHT22;133;49.626;9.680;2023-05-10T00:14:34;15.00;98.70
298;DHT22;133;49.626;9.680;2023-05-10T00:17:00;15.00;98.70
298;DHT22;133;49.626;9.680;2023-05-10T00:19:26;15.00;98.70
298;DHT22;133;49.626;9.680;2023-05-10T00:21:51;15.00;98.70
298;DHT22;133;49.626;9.680;2023-05-10T00:24:17;15.00;98.70
298;DHT22;133;49.626;9.680;2023-05-10T00:26:42;15.00;98.70
298;DHT22;133;49.626;9.680;2023-05-10T00:29:08;14.90;98.70
298;DHT22;133;49.626;9.680;2023-05-10T00:31:34;14.90;98.70
298;DHT22;133;49.626;9.680;2023-05-10T00:33:59;14.90;98.70
298;DHT22;133;49.626;9.680;2023-05-10T00:36:25;14.80;98.70
298;DHT22;133;49.626;9.680;2023-05-10T00:38:51;14.80;98.70
298;DHT22;133;49.626;9.680;2023-05-10T00:41:16;14.80;98.70
298;DHT22;133;49.626;9.680;2023-05-10T00:43:42;14.80;98.70
298;DHT22;133;49.626;9.680;2023-05-10T00:46:08;14.80;98.70
298;DHT22;133;49.626;9.680;2023-05-10T00:48:34;14.80;98.70
298;DHT22;133;49.626;9.680;2023-05-10T00:51:01;14.80;98.70
298;DHT22;133;49.626;9.680;2023-05-10T00:53:27;14.80;98.70
298;DHT22;133;49.626;9.680;2023-05-10T00:55:54;14.80;98.70
298;DHT22;133;49.626;9.680;2023-05-10T00:58:19;14.70;98.70
298;DHT22;133;49.626;9.680;2023-05-10T01:00:46;14.60;98.70
298;DHT22;133;49.626;9.680;2023-05-10T01:03:13;14.60;98.70
298;DHT22;133;49.626;9.680;2023-05-10T01:05:39;14.60;98.70
298;DHT22;133;49.626;9.680;2023-05-10T01:08:05;14.60;98.70
298;DHT22;133;49.626;9.680;2023-05-10T01:10:31;14.50;98.70
298;DHT22;133;49.626;9.680;2023-05-10T01:12:59;14.50;98.70
298;DHT22;133;49.626;9.680;2023-05-10T01:15:25;14.60;98.70
298;DHT22;133;49.626;9.680;2023-05-10T01:17:51;14.50;98.70
298;DHT22;133;49.626;9.680;2023-05-10T01:20:17;14.50;98.70
298;DHT22;133;49.626;9.680;2023-05-10T01:36:47;14.40;98.70
298;DHT22;133;49.626;9.680;2023-05-10T01:39:37;14.40;98.70
298;DHT22;133;49.626;9.680;2023-05-10T01:42:29;14.40;98.70
298;DHT22;133;49.626;9.680;2023-05-10T01:45:07;14.30;98.70
298;DHT22;133;49.626;9.680;2023-05-10T01:47:41;14.30;98.70
298;DHT22;133;49.626;9.680;2023-05-10T01:50:14;14.40;98.70
298;DHT22;133;49.626;9.680;2023-05-10T01:52:49;14.30;98.70
298;DHT22;133;49.626;9.680;2023-05-10T01:55:18;14.20;98.60
298;DHT22;133;49.626;9.680;2023-05-10T01:57:44;14.20;98.70
298;DHT22;133;49.626;9.680;2023-05-10T02:00:12;14.10;98.70
298;DHT22;133;49.626;9.680;2023-05-10T02:02:41;14.00;98.70
298;DHT22;133;49.626;9.680;2023-05-10T02:05:08;13.90;98.70
298;DHT22;133;49.626;9.680;2023-05-10T02:07:35;13.90;98.70
298;DHT22;133;49.626;9.680;2023-05-10T02:10:06;13.90;98.70
298;DHT22;133;49.626;9.680;2023-05-10T02:12:36;13.90;98.70
298;DHT22;133;49.626;9.680;2023-05-10T02:15:04;13.90;98.70
298;DHT22;133;49.626;9.680;2023-05-10T02:17:32;13.80;98.70
298;DHT22;133;49.626;9.680;2023-05-10T02:19:59;13.90;98.70
298;DHT22;133;49.626;9.680;2023-05-10T02:22:26;13.90;98.70
298;DHT22;133;49.626;9.680;2023-05-10T02:24:54;13.90;98.70
298;DHT22;133;49.626;9.680;2023-05-10T02:27:22;13.80;98.70
298;DHT22;133;49.626;9.680;2023-05-10T02:29:49;13.80;98.70
298;DHT22;133;49.626;9.680;2023-05-10T02:32:16;13.80;98.70
298;DHT22;133;49.626;9.680;2023-05-10T02:34:44;13.80;98.70
298;DHT22;133;49.626;9.680;2023-05-10T02:37:13;13.90;98.70
298;DHT22;133;49.626;9.680;2023-05-10T02:39:40;13.80;98.70
298;DHT22;133;49.626;9.680;2023-05-10T02:42:11;13.90;98.70
298;DHT22;133;49.626;9.680;2023-05-10T02:44:39;13.80;98.70
298;DHT22;133;49.626;9.680;2023-05-10T02:47:06;13.80;98.70
298;DHT22;133;49.626;9.680;2023-05-10T02:49:32;13.80;98.70
298;DHT22;133;49.626;9.680;2023-05-10T02:52:01;13.70;98.70
298;DHT22;133;49.626;9.680;2023-05-10T02:54:31;13.70;98.70
298;DHT22;133;49.626;9.680;2023-05-10T02:56:58;13.60;98.70
298;DHT22;133;49.626;9.680;2023-05-10T02:59:26;13.70;98.70
298;DHT22;133;49.626;9.680;2023-05-10T03:01:52;13.80;98.70
298;DHT22;133;49.626;9.680;2023-05-10T03:04:18;13.80;98.70
298;DHT22;133;49.626;9.680;2023-05-10T03:06:43;13.90;98.70
298;DHT22;133;49.626;9.680;2023-05-10T03:09:10;13.90;98.70
298;DHT22;133;49.626;9.680;2023-05-10T03:11:54;14.00;98.70
298;DHT22;133;49.626;9.680;2023-05-10T03:14:31;14.00;98.70
298;DHT22;133;49.626;9.680;2023-05-10T03:17:30;14.00;98.70
298;DHT22;133;49.626;9.680;2023-05-10T03:20:01;14.10;98.70
298;DHT22;133;49.626;9.680;2023-05-10T03:22:36;14.10;98.70
298;DHT22;133;49.626;9.680;2023-05-10T03:25:05;14.00;98.70
298;DHT22;133;49.626;9.680;2023-05-10T03:27:32;13.90;98.70
298;DHT22;133;49.626;9.680;2023-05-10T03:29:58;13.90;98.70
298;DHT22;133;49.626;9.680;2023-05-10T03:32:24;13.90;98.70
298;DHT22;133;49.626;9.680;2023-05-10T03:34:49;13.80;98.70
298;DHT22;133;49.626;9.680;2023-05-10T03:37:15;13.80;98.70
298;DHT22;133;49.626;9.680;2023-05-10T03:39:40;13.70;98.70
298;DHT22;133;49.626;9.680;2023-05-10T03:42:06;13.60;98.70
298;DHT22;133;49.626;9.680;2023-05-10T03:44:32;13.60;98.70
298;DHT22;133;49.626;9.680;2023-05-10T03:46:58;13.60;98.70
298;DHT22;133;49.626;9.680;2023-05-10T03:49:24;13.60;98.70
298;DHT22;133;49.626;9.680;2023-05-10T03:51:50;13.60;98.70
298;DHT22;133;49.626;9.680;2023-05-10T03:54:15;13.60;98.70
298;DHT22;133;49.626;9.680;2023-05-10T03:56:41;13.60;98.70
298;DHT22;133;49.626;9.680;2023-05-10T03:59:07;13.50;98.70
298;DHT22;133;49.626;9.680;2023-05-10T04:01:34;13.50;98.70
298;DHT22;133;49.626;9.680;2023-05-10T04:04:00;13.50;98.70
298;DHT22;133;49.626;9.680;2023-05-10T04:06:26;13.60;98.70
298;DHT22;133;49.626;9.680;2023-05-10T04:08:51;13.60;98.70
298;DHT22;133;49.626;9.680;2023-05-10T04:11:17;13.60;98.70
298;DHT22;133;49.626;9.680;2023-05-10T04:13:42;13.60;98.70
298;DHT22;133;49.626;9.680;2023-05-10T04:16:08;13.60;98.70
298;DHT22;133;49.626;9.680;2023-05-10T04:18:34;13.60;98.70
298;DHT22;133;49.626;9.680;2023-05-10T04:21:00;13.60;98.70
298;DHT22;133;49.626;9.680;2023-05-10T04:23:29;13.60;98.70
298;DHT22;133;49.626;9.680;2023-05-10T04:26:01;13.60;98.70
298;DHT22;133;49.626;9.680;2023-05-10T04:28:27;13.70;98.70
298;DHT22;133;49.626;9.680;2023-05-10T04:30:52;13.80;98.70
298;DHT22;133;49.626;9.680;2023-05-10T04:33:18;13.80;98.70
298;DHT22;133;49.626;9.680;2023-05-10T04:35:44;13.90;98.70
298;DHT22;133;49.626;9.680;2023-05-10T04:38:10;13.90;98.70
298;DHT22;133;49.626;9.680;2023-05-10T04:40:36;14.00;98.70
298;DHT22;133;49.626;9.680;2023-05-10T04:43:01;14.00;98.70
298;DHT22;133;49.626;9.680;2023-05-10T04:45:27;14.00;98.70
298;DHT22;133;49.626;9.680;2023-05-10T04:47:52;14.10;98.60
298;DHT22;133;49.626;9.680;2023-05-10T04:50:18;14.20;98.30
298;DHT22;133;49.626;9.680;2023-05-10T04:52:44;14.10;98.00
298;DHT22;133;49.626;9.680;2023-05-10T04:55:10;14.20;98.00
298;DHT22;133;49.626;9.680;2023-05-10T04:57:35;14.20;98.20
298;DHT22;133;49.626;9.680;2023-05-10T05:00:01;14.20;98.20
298;DHT22;133;49.626;9.680;2023-05-10T05:02:27;14.20;98.00
298;DHT22;133;49.626;9.680;2023-05-10T05:04:52;14.10;98.10
298;DHT22;133;49.626;9.680;2023-05-10T05:07:18;14.20;98.30
298;DHT22;133;49.626;9.680;2023-05-10T05:09:43;14.20;98.20
298;DHT22;133;49.626;9.680;2023-05-10T05:12:09;14.20;97.60
298;DHT22;133;49.626;9.680;2023-05-10T05:14:39;14.20;97.80
298;DHT22;133;49.626;9.680;2023-05-10T05:17:05;14.20;97.30
298;DHT22;133;49.626;9.680;2023-05-10T05:19:31;14.20;97.40
298;DHT22;133;49.626;9.680;2023-05-10T05:21:57;14.20;97.50
298;DHT22;133;49.626;9.680;2023-05-10T05:24:22;14.20;97.70
298;DHT22;133;49.626;9.680;2023-05-10T05:26:48;14.20;97.80
298;DHT22;133;49.626;9.680;2023-05-10T05:29:14;14.30;97.80
298;DHT22;133;49.626;9.680;2023-05-10T05:31:39;14.30;97.90
298;DHT22;133;49.626;9.680;2023-05-10T05:34:05;14.40;97.80
298;DHT22;133;49.626;9.680;2023-05-10T05:36:30;14.40;96.80
298;DHT22;133;49.626;9.680;2023-05-10T05:38:57;14.30;96.70
298;DHT22;133;49.626;9.680;2023-05-10T05:41:22;14.10;97.20
298;DHT22;133;49.626;9.680;2023-05-10T05:43:49;14.30;97.80
298;DHT22;133;49.626;9.680;2023-05-10T05:46:15;14.30;97.80
298;DHT22;133;49.626;9.680;2023-05-10T05:48:41;14.30;98.30
298;DHT22;133;49.626;9.680;2023-05-10T05:51:06;14.40;97.90
298;DHT22;133;49.626;9.680;2023-05-10T05:53:32;14.30;97.40
298;DHT22;133;49.626;9.680;2023-05-10T05:55:58;14.30;97.40
298;DHT22;133;49.626;9.680;2023-05-10T05:58:24;14.30;97.70
298;DHT22;133;49.626;9.680;2023-05-10T06:00:53;14.20;97.60
298;DHT22;133;49.626;9.680;2023-05-10T06:03:22;14.20;97.90
298;DHT22;133;49.626;9.680;2023-05-10T06:05:48;14.10;97.80
298;DHT22;133;49.626;9.680;2023-05-10T06:08:13;14.10;98.20
298;DHT22;133;49.626;9.680;2023-05-10T06:10:39;14.10;98.20
298;DHT22;133;49.626;9.680;2023-05-10T06:13:04;14.30;98.60
298;DHT22;133;49.626;9.680;2023-05-10T06:15:30;14.30;98.40
298;DHT22;133;49.626;9.680;2023-05-10T06:17:56;14.40;98.60
298;DHT22;133;49.626;9.680;2023-05-10T06:20:22;14.50;97.90
298;DHT22;133;49.626;9.680;2023-05-10T06:22:47;14.40;97.00
298;DHT22;133;49.626;9.680;2023-05-10T06:25:13;14.60;97.50
298;DHT22;133;49.626;9.680;2023-05-10T06:27:40;14.60;96.90
298;DHT22;133;49.626;9.680;2023-05-10T06:30:06;14.60;97.00
298;DHT22;133;49.626;9.680;2023-05-10T06:32:31;14.70;96.90
298;DHT22;133;49.626;9.680;2023-05-10T06:34:57;14.90;96.40
298;DHT22;133;49.626;9.680;2023-05-10T06:37:22;14.90;95.40
298;DHT22;133;49.626;9.680;2023-05-10T06:39:48;15.00;95.20
298;DHT22;133;49.626;9.680;2023-05-10T06:42:14;15.10;95.00
298;DHT22;133;49.626;9.680;2023-05-10T06:44:39;15.20;94.80
298;DHT22;133;49.626;9.680;2023-05-10T06:47:05;15.10;93.70
298;DHT22;133;49.626;9.680;2023-05-10T06:49:30;15.00;92.90
298;DHT22;133;49.626;9.680;2023-05-10T06:51:56;15.00;93.60
298;DHT22;133;49.626;9.680;2023-05-10T06:54:22;14.90;92.90
298;DHT22;133;49.626;9.680;2023-05-10T06:56:48;14.90;92.20
298;DHT22;133;49.626;9.680;2023-05-10T06:59:14;14.90;91.60
298;DHT22;133;49.626;9.680;2023-05-10T07:01:40;14.90;92.60
298;DHT22;133;49.626;9.680;2023-05-10T07:04:06;15.00;91.90
298;DHT22;133;49.626;9.680;2023-05-10T07:06:32;14.90;91.00
298;DHT22;133;49.626;9.680;2023-05-10T07:08:59;14.80;92.10
298;DHT22;133;49.626;9.680;2023-05-10T07:11:24;14.80;92.10
298;DHT22;133;49.626;9.680;2023-05-10T07:13:50;14.90;91.80
298;DHT22;133;49.626;9.680;2023-05-10T07:16:15;14.90;91.50
298;DHT22;133;49.626;9.680;2023-05-10T07:18:41;14.70;91.50
298;DHT22;133;49.626;9.680;2023-05-10T07:21:06;14.70;91.70
298;DHT22;133;49.626;9.680;2023-05-10T07:23:32;14.90;91.90
298;DHT22;133;49.626;9.680;2023-05-10T07:25:58;14.90;92.00
298;DHT22;133;49.626;9.680;2023-05-10T07:28:24;15.00;91.10
298;DHT22;133;49.626;9.680;2023-05-10T07:30:50;14.90;91.40
298;DHT22;133;49.626;9.680;2023-05-10T07:33:15;14.90;91.20
298;DHT22;133;49.626;9.680;2023-05-10T07:35:42;15.00;90.40
298;DHT22;133;49.626;9.680;2023-05-10T07:38:07;15.20;91.20
298;DHT22;133;49.626;9.680;2023-05-10T07:40:33;15.20;90.50
298;DHT22;133;49.626;9.680;2023-05-10T07:42:59;15.50;89.90
298;DHT22;133;49.626;9.680;2023-05-10T07:45:27;15.50;89.10
298;DHT22;133;49.626;9.680;2023-05-10T07:47:52;15.70;88.40
298;DHT22;133;49.626;9.680;2023-05-10T07:50:18;15.80;88.30
298;DHT22;133;49.626;9.680;2023-05-10T07:52:43;15.90;88.30
298;DHT22;133;49.626;9.680;2023-05-10T07:55:09;16.00;88.40
298;DHT22;133;49.626;9.680;2023-05-10T07:57:35;16.00;87.80
298;DHT22;133;49.626;9.680;2023-05-10T08:00:00;16.00;87.30
298;DHT22;133;49.626;9.680;2023-05-10T08:02:26;16.00;87.80
298;DHT22;133;49.626;9.680;2023-05-10T08:04:52;16.00;86.70
298;DHT22;133;49.626;9.680;2023-05-10T08:07:18;16.00;86.70
298;DHT22;133;49.626;9.680;2023-05-10T08:09:43;16.00;87.40
298;DHT22;133;49.626;9.680;2023-05-10T08:12:09;16.00;87.70
298;DHT22;133;49.626;9.680;2023-05-10T08:14:35;16.00;87.70
298;DHT22;133;49.626;9.680;2023-05-10T08:17:02;16.20;88.10
298;DHT22;133;49.626;9.680;2023-05-10T08:19:28;16.20;87.90
298;DHT22;133;49.626;9.680;2023-05-10T08:21:54;16.20;88.10
298;DHT22;133;49.626;9.680;2023-05-10T08:24:21;16.40;88.80
298;DHT22;133;49.626;9.680;2023-05-10T08:26:47;16.60;87.30
298;DHT22;133;49.626;9.680;2023-05-10T08:29:13;16.70;86.50
298;DHT22;133;49.626;9.680;2023-05-10T08:31:39;16.60;86.00
298;DHT22;133;49.626;9.680;2023-05-10T08:34:05;16.50;85.80
298;DHT22;133;49.626;9.680;2023-05-10T08:36:30;16.40;85.00
298;DHT22;133;49.626;9.680;2023-05-10T08:38:57;16.50;85.30
298;DHT22;133;49.626;9.680;2023-05-10T08:41:24;16.50;85.10
298;DHT22;133;49.626;9.680;2023-05-10T08:43:52;16.40;84.40
298;DHT22;133;49.626;9.680;2023-05-10T08:46:19;16.30;84.50
298;DHT22;133;49.626;9.680;2023-05-10T08:48:46;16.30;85.50
298;DHT22;133;49.626;9.680;2023-05-10T08:51:19;16.60;85.40
298;DHT22;133;49.626;9.680;2023-05-10T08:53:47;16.80;84.50
298;DHT22;133;49.626;9.680;2023-05-10T08:56:13;16.90;84.20
298;DHT22;133;49.626;9.680;2023-05-10T08:58:41;16.90;83.90
298;DHT22;133;49.626;9.680;2023-05-10T09:01:07;16.90;83.30
298;DHT22;133;49.626;9.680;2023-05-10T09:03:34;16.90;83.20
298;DHT22;133;49.626;9.680;2023-05-10T09:06:00;17.00;83.20
298;DHT22;133;49.626;9.680;2023-05-10T09:08:26;16.90;82.40
298;DHT22;133;49.626;9.680;2023-05-10T09:10:53;17.00;81.90
298;DHT22;133;49.626;9.680;2023-05-10T09:13:19;17.20;82.80
298;DHT22;133;49.626;9.680;2023-05-10T09:15:45;17.60;81.70
298;DHT22;133;49.626;9.680;2023-05-10T09:18:11;18.00;80.60
298;DHT22;133;49.626;9.680;2023-05-10T09:20:37;18.50;79.10
298;DHT22;133;49.626;9.680;2023-05-10T09:23:03;18.90;76.90
298;DHT22;133;49.626;9.680;2023-05-10T09:25:29;18.50;77.40
298;DHT22;133;49.626;9.680;2023-05-10T09:27:55;18.30;78.60
298;DHT22;133;49.626;9.680;2023-05-10T09:30:28;18.10;78.10
298;DHT22;133;49.626;9.680;2023-05-10T09:32:55;18.10;79.20
298;DHT22;133;49.626;9.680;2023-05-10T09:35:23;17.80;78.60
298;DHT22;133;49.626;9.680;2023-05-10T09:37:52;17.70;79.30
298;DHT22;133;49.626;9.680;2023-05-10T09:40:26;17.50;79.70
298;DHT22;133;49.626;9.680;2023-05-10T09:43:00;17.30;80.10
298;DHT22;133;49.626;9.680;2023-05-10T09:45:30;17.20;80.80
298;DHT22;133;49.626;9.680;2023-05-10T09:47:57;17.00;81.10
298;DHT22;133;49.626;9.680;2023-05-10T09:50:23;16.90;81.20
298;DHT22;133;49.626;9.680;2023-05-10T09:52:51;16.90;82.40
298;DHT22;133;49.626;9.680;2023-05-10T09:55:19;17.10;82.00
298;DHT22;133;49.626;9.680;2023-05-10T09:57:46;17.30;80.10
298;DHT22;133;49.626;9.680;2023-05-10T10:00:17;17.70;80.50
298;DHT22;133;49.626;9.680;2023-05-10T10:02:44;18.00;78.50
298;DHT22;133;49.626;9.680;2023-05-10T10:05:11;17.90;78.20
298;DHT22;133;49.626;9.680;2023-05-10T10:07:37;17.80;78.70
298;DHT22;133;49.626;9.680;2023-05-10T10:10:03;17.90;78.30
298;DHT22;133;49.626;9.680;2023-05-10T10:12:30;17.90;78.70
298;DHT22;133;49.626;9.680;2023-05-10T10:14:56;17.70;78.20
298;DHT22;133;49.626;9.680;2023-05-10T10:17:25;17.70;77.90
298;DHT22;133;49.626;9.680;2023-05-10T10:19:53;17.70;77.90
298;DHT22;133;49.626;9.680;2023-05-10T10:22:19;17.80;77.50
298;DHT22;133;49.626;9.680;2023-05-10T10:24:45;17.90;77.10
298;DHT22;133;49.626;9.680;2023-05-10T10:30:50;17.70;77.10
298;DHT22;133;49.626;9.680;2023-05-10T10:35:28;17.60;77.60
298;DHT22;133;49.626;9.680;2023-05-10T10:37:54;17.70;78.00
298;DHT22;133;49.626;9.680;2023-05-10T10:42:53;17.60;78.60
298;DHT22;133;49.626;9.680;2023-05-10T10:45:19;17.40;78.90
298;DHT22;133;49.626;9.680;2023-05-10T10:47:46;17.40;79.30
298;DHT22;133;49.626;9.680;2023-05-10T10:50:12;17.40;79.30
298;DHT22;133;49.626;9.680;2023-05-10T10:52:45;17.40;79.00
298;DHT22;133;49.626;9.680;2023-05-10T10:55:13;17.50;79.10
298;DHT22;133;49.626;9.680;2023-05-10T10:57:52;17.70;78.60
298;DHT22;133;49.626;9.680;2023-05-10T11:00:41;17.60;77.60
298;DHT22;133;49.626;9.680;2023-05-10T11:03:09;17.90;78.00
298;DHT22;133;49.626;9.680;2023-05-10T11:05:47;18.00;77.70
298;DHT22;133;49.626;9.680;2023-05-10T11:08:17;18.10;78.20
298;DHT22;133;49.626;9.680;2023-05-10T11:11:09;18.10;77.20
298;DHT22;133;49.626;9.680;2023-05-10T11:16:23;18.20;77.50
298;DHT22;133;49.626;9.680;2023-05-10T11:21:27;18.90;76.10
298;DHT22;133;49.626;9.680;2023-05-10T11:23:55;18.80;74.80
298;DHT22;133;49.626;9.680;2023-05-10T11:26:34;19.00;74.50
298;DHT22;133;49.626;9.680;2023-05-10T11:29:00;19.20;73.40
298;DHT22;133;49.626;9.680;2023-05-10T11:31:27;19.40;72.70
298;DHT22;133;49.626;9.680;2023-05-10T11:33:55;19.50;72.80
298;DHT22;133;49.626;9.680;2023-05-10T11:36:25;19.80;71.30
298;DHT22;133;49.626;9.680;2023-05-10T11:38:53;19.90;72.00
298;DHT22;133;49.626;9.680;2023-05-10T11:41:19;20.20;70.40
298;DHT22;133;49.626;9.680;2023-05-10T11:43:52;20.10;70.40
298;DHT22;133;49.626;9.680;2023-05-10T11:46:20;20.20;71.70
298;DHT22;133;49.626;9.680;2023-05-10T11:48:51;20.60;69.90
298;DHT22;133;49.626;9.680;2023-05-10T11:51:24;20.80;68.40
298;DHT22;133;49.626;9.680;2023-05-10T11:53:53;20.80;68.30
298;DHT22;133;49.626;9.680;2023-05-10T11:56:19;20.20;68.90
298;DHT22;133;49.626;9.680;2023-05-10T11:58:54;19.60;72.00
298;DHT22;133;49.626;9.680;2023-05-10T12:01:21;18.80;72.20
298;DHT22;133;49.626;9.680;2023-05-10T12:03:47;18.10;74.30
298;DHT22;133;49.626;9.680;2023-05-10T12:06:13;17.60;76.20
298;DHT22;133;49.626;9.680;2023-05-10T12:08:45;17.30;77.30
298;DHT22;133;49.626;9.680;2023-05-10T12:11:12;16.90;78.90
298;DHT22;133;49.626;9.680;2023-05-10T12:13:42;16.60;80.10
298;DHT22;133;49.626;9.680;2023-05-10T12:16:16;16.30;81.30
298;DHT22;133;49.626;9.680;2023-05-10T12:18:42;16.10;82.30
298;DHT22;133;49.626;9.680;2023-05-10T12:21:09;16.00;82.50
298;DHT22;133;49.626;9.680;2023-05-10T12:23:35;16.20;82.60
298;DHT22;133;49.626;9.680;2023-05-10T12:26:04;16.30;83.00
298;DHT22;133;49.626;9.680;2023-05-10T12:28:31;16.20;84.30
298;DHT22;133;49.626;9.680;2023-05-10T12:30:58;16.20;84.90
298;DHT22;133;49.626;9.680;2023-05-10T12:33:24;16.10;85.90
298;DHT22;133;49.626;9.680;2023-05-10T12:35:52;16.00;86.80
298;DHT22;133;49.626;9.680;2023-05-10T12:38:47;16.00;87.60
298;DHT22;133;49.626;9.680;2023-05-10T12:41:15;15.90;89.00
298;DHT22;133;49.626;9.680;2023-05-10T12:43:41;16.10;89.20
298;DHT22;133;49.626;9.680;2023-05-10T12:46:11;16.00;89.40
298;DHT22;133;49.626;9.680;2023-05-10T12:48:39;16.00;89.60
298;DHT22;133;49.626;9.680;2023-05-10T12:51:05;16.20;89.80
298;DHT22;133;49.626;9.680;2023-05-10T12:53:35;16.20;89.60
298;DHT22;133;49.626;9.680;2023-05-10T12:56:01;16.30;89.10
298;DHT22;133;49.626;9.680;2023-05-10T12:58:26;16.30;87.60
298;DHT22;133;49.626;9.680;2023-05-10T13:00:52;16.20;87.10
298;DHT22;133;49.626;9.680;2023-05-10T13:03:18;16.20;87.50
298;DHT22;133;49.626;9.680;2023-05-10T13:05:44;16.10;86.60
298;DHT22;133;49.626;9.680;2023-05-10T13:08:09;16.10;87.30
298;DHT22;133;49.626;9.680;2023-05-10T13:10:35;16.20;88.40
298;DHT22;133;49.626;9.680;2023-05-10T13:13:01;16.40;86.80
298;DHT22;133;49.626;9.680;2023-05-10T13:15:26;16.50;86.90
298;DHT22;133;49.626;9.680;2023-05-10T13:17:53;16.30;86.20
298;DHT22;133;49.626;9.680;2023-05-10T13:20:19;16.30;85.60
298;DHT22;133;49.626;9.680;2023-05-10T13:22:44;16.40;85.70
298;DHT22;133;49.626;9.680;2023-05-10T13:25:10;16.40;85.20
298;DHT22;133;49.626;9.680;2023-05-10T13:27:37;16.30;86.10
298;DHT22;133;49.626;9.680;2023-05-10T13:30:03;16.50;85.60
298;DHT22;133;49.626;9.680;2023-05-10T13:32:29;16.40;84.20
298;DHT22;133;49.626;9.680;2023-05-10T13:34:55;16.30;83.90
298;DHT22;133;49.626;9.680;2023-05-10T13:37:21;16.30;83.90
298;DHT22;133;49.626;9.680;2023-05-10T13:39:47;16.40;84.20
298;DHT22;133;49.626;9.680;2023-05-10T13:42:12;16.30;83.60
298;DHT22;133;49.626;9.680;2023-05-10T13:44:38;16.50;84.50
298;DHT22;133;49.626;9.680;2023-05-10T13:47:04;16.50;83.80
298;DHT22;133;49.626;9.680;2023-05-10T13:49:30;16.40;81.30
298;DHT22;133;49.626;9.680;2023-05-10T13:51:56;16.40;80.60
298;DHT22;133;49.626;9.680;2023-05-10T13:54:21;16.40;81.20
298;DHT22;133;49.626;9.680;2023-05-10T13:56:47;16.60;81.20
298;DHT22;133;49.626;9.680;2023-05-10T13:59:14;16.60;80.90
298;DHT22;133;49.626;9.680;2023-05-10T14:01:43;16.50;80.10
298;DHT22;133;49.626;9.680;2023-05-10T14:04:09;16.50;80.40
298;DHT22;133;49.626;9.680;2023-05-10T14:06:38;16.40;80.10
298;DHT22;133;49.626;9.680;2023-05-10T14:09:03;16.40;80.60
298;DHT22;133;49.626;9.680;2023-05-10T14:11:29;16.60;80.90
298;DHT22;133;49.626;9.680;2023-05-10T14:13:55;16.70;81.30
298;DHT22;133;49.626;9.680;2023-05-10T14:16:21;16.90;80.50
298;DHT22;133;49.626;9.680;2023-05-10T14:18:47;16.90;79.30
298;DHT22;133;49.626;9.680;2023-05-10T14:21:12;16.60;79.60
298;DHT22;133;49.626;9.680;2023-05-10T14:23:38;16.80;79.50
298;DHT22;133;49.626;9.680;2023-05-10T14:26:04;16.70;79.90
298;DHT22;133;49.626;9.680;2023-05-10T14:28:31;16.90;79.90
298;DHT22;133;49.626;9.680;2023-05-10T14:30:57;16.90;79.50
298;DHT22;133;49.626;9.680;2023-05-10T14:33:23;17.10;79.80
298;DHT22;133;49.626;9.680;2023-05-10T14:35:48;17.40;79.60
298;DHT22;133;49.626;9.680;2023-05-10T14:38:14;17.40;78.80
298;DHT22;133;49.626;9.680;2023-05-10T14:40:40;17.50;78.60
298;DHT22;133;49.626;9.680;2023-05-10T14:43:06;17.80;78.60
298;DHT22;133;49.626;9.680;2023-05-10T14:45:31;17.80;77.10
298;DHT22;133;49.626;9.680;2023-05-10T14:47:57;18.00;77.30
298;DHT22;133;49.626;9.680;2023-05-10T14:50:23;17.70;76.60
298;DHT22;133;49.626;9.680;2023-05-10T14:52:49;17.70;76.60
298;DHT22;133;49.626;9.680;2023-05-10T14:55:14;17.70;76.10
298;DHT22;133;49.626;9.680;2023-05-10T14:57:40;17.90;76.40
298;DHT22;133;49.626;9.680;2023-05-10T15:00:07;17.90;75.40
298;DHT22;133;49.626;9.680;2023-05-10T15:02:32;17.90;75.40
298;DHT22;133;49.626;9.680;2023-05-10T15:04:58;18.00;75.40
298;DHT22;133;49.626;9.680;2023-05-10T15:07:24;17.90;75.10
298;DHT22;133;49.626;9.680;2023-05-10T15:09:50;17.80;75.70
298;DHT22;133;49.626;9.680;2023-05-10T15:12:17;18.00;76.20
298;DHT22;133;49.626;9.680;2023-05-10T15:14:43;18.20;75.80
298;DHT22;133;49.626;9.680;2023-05-10T15:17:09;18.30;75.10
298;DHT22;133;49.626;9.680;2023-05-10T15:19:35;18.30;75.30
298;DHT22;133;49.626;9.680;2023-05-10T15:22:01;18.20;74.80
298;DHT22;133;49.626;9.680;2023-05-10T15:24:28;18.20;75.10
298;DHT22;133;49.626;9.680;2023-05-10T15:26:53;18.20;76.60
298;DHT22;133;49.626;9.680;2023-05-10T15:29:19;18.20;77.10
298;DHT22;133;49.626;9.680;2023-05-10T15:31:49;18.00;77.70
298;DHT22;133;49.626;9.680;2023-05-10T15:34:15;17.90;78.20
298;DHT22;133;49.626;9.680;2023-05-10T15:36:41;17.80;79.00
298;DHT22;133;49.626;9.680;2023-05-10T15:39:07;17.80;79.00
298;DHT22;133;49.626;9.680;2023-05-10T15:41:34;17.80;78.60
298;DHT22;133;49.626;9.680;2023-05-10T15:44:00;17.90;78.60
298;DHT22;133;49.626;9.680;2023-05-10T15:46:27;17.90;78.10
298;DHT22;133;49.626;9.680;2023-05-10T15:48:52;17.80;76.50
298;DHT22;133;49.626;9.680;2023-05-10T15:51:18;17.60;77.40
298;DHT22;133;49.626;9.680;2023-05-10T15:53:45;17.60;77.00
298;DHT22;133;49.626;9.680;2023-05-10T15:56:11;17.50;77.40
298;DHT22;133;49.626;9.680;2023-05-10T15:58:40;17.50;77.50
298;DHT22;133;49.626;9.680;2023-05-10T16:01:06;17.30;77.00
298;DHT22;133;49.626;9.680;2023-05-10T16:03:33;17.30;76.80
298;DHT22;133;49.626;9.680;2023-05-10T16:05:59;17.30;76.70
298;DHT22;133;49.626;9.680;2023-05-10T16:08:25;17.10;76.60
298;DHT22;133;49.626;9.680;2023-05-10T16:10:51;17.10;77.10
298;DHT22;133;49.626;9.680;2023-05-10T16:13:16;17.30;77.40
298;DHT22;133;49.626;9.680;2023-05-10T16:15:42;17.30;77.10
298;DHT22;133;49.626;9.680;2023-05-10T16:18:08;17.30;77.00
298;DHT22;133;49.626;9.680;2023-05-10T16:20:34;17.40;77.00
298;DHT22;133;49.626;9.680;2023-05-10T16:23:04;17.60;77.20
298;DHT22;133;49.626;9.680;2023-05-10T16:25:30;17.50;76.00
298;DHT22;133;49.626;9.680;2023-05-10T16:27:56;17.50;75.90
298;DHT22;133;49.626;9.680;2023-05-10T16:30:22;17.60;75.90
298;DHT22;133;49.626;9.680;2023-05-10T16:32:54;17.60;76.00
298;DHT22;133;49.626;9.680;2023-05-10T16:35:19;17.70;75.50
298;DHT22;133;49.626;9.680;2023-05-10T16:37:45;17.60;75.00
298;DHT22;133;49.626;9.680;2023-05-10T16:40:11;17.70;75.40
298;DHT22;133;49.626;9.680;2023-05-10T16:42:37;17.70;75.20
298;DHT22;133;49.626;9.680;2023-05-10T16:45:02;17.90;75.20
298;DHT22;133;49.626;9.680;2023-05-10T16:47:32;17.90;74.60
298;DHT22;133;49.626;9.680;2023-05-10T16:49:58;18.10;74.80
298;DHT22;133;49.626;9.680;2023-05-10T16:52:24;18.10;74.30
298;DHT22;133;49.626;9.680;2023-05-10T16:54:49;18.10;74.30
298;DHT22;133;49.626;9.680;2023-05-10T16:57:15;18.20;74.10
298;DHT22;133;49.626;9.680;2023-05-10T16:59:41;18.20;73.40
298;DHT22;133;49.626;9.680;2023-05-10T17:02:06;18.30;73.70